Time;durP1;ratioP1;P1;durP2;ratioP2;P2;SDS_P1;SDS_P2;PMS_P1;PMS_P2;Temp;Humidity;BMP_temperature;BMP_pressure;BME280_temperature;BME280_humidity;BME280_pressure;Samples;Min_cycle;Max_cycle;Signal;HPM_P1;HPM_P2
2023/09/09 00:00:55;;;;;;;0.20;0.20;;;;;;;20.41;100.00;100053.69;5052783;28;20067;-66
2023/09/09 00:03:21;;;;;;;0.10;0.10;;;;;;;20.48;100.00;100058.50;5059940;28;20043;-66
2023/09/09 00:05:47;;;;;;;0.20;0.20;;;;;;;20.47;100.00;100056.81;5048926;28;20480;-66
2023/09/09 00:08:13;;;;;;;0.10;0.10;;;;;;;20.42;100.00;100056.28;5047772;28;20026;-67
2023/09/09 00:10:38;;;;;;;0.10;0.10;;;;;;;20.42;100.00;100058.97;5064398;28;20055;-66
2023/09/09 00:13:06;;;;;;;0.10;0.10;;;;;;;20.36;100.00;100058.56;5050867;28;20503;-66
2023/09/09 00:15:33;;;;;;;0.10;0.10;;;;;;;20.27;100.00;100059.19;5066219;28;20035;-66
2023/09/09 00:18:00;;;;;;;0.10;0.10;;;;;;;20.22;100.00;100061.34;5069111;28;20039;-66
2023/09/09 00:20:40;;;;;;;0.10;0.10;;;;;;;20.20;100.00;100064.16;5068837;28;20024;-66
2023/09/09 00:23:09;;;;;;;0.10;0.10;;;;;;;20.18;100.00;100066.09;5068486;28;20020;-66
2023/09/09 00:25:36;;;;;;;0.10;0.10;;;;;;;20.15;100.00;100060.94;5065888;28;20039;-66
2023/09/09 00:28:02;;;;;;;0.20;0.20;;;;;;;20.14;100.00;100064.59;5068604;28;20035;-67
2023/09/09 00:30:28;;;;;;;0.10;0.10;;;;;;;20.08;100.00;100051.50;5060235;28;20508;-66
2023/09/09 00:32:53;;;;;;;0.20;0.20;;;;;;;20.12;100.00;100057.53;5048762;28;20028;-67
2023/09/09 00:35:18;;;;;;;0.13;0.13;;;;;;;20.09;100.00;100069.44;5049331;28;20032;-67
2023/09/09 00:37:44;;;;;;;0.10;0.10;;;;;;;20.06;100.00;100066.09;5050490;28;20029;-67
2023/09/09 00:40:11;;;;;;;0.20;0.20;;;;;;;20.01;100.00;100063.72;5057854;28;20040;-67
2023/09/09 00:42:37;;;;;;;0.10;0.10;;;;;;;19.99;100.00;100068.34;5065696;28;20028;-66
2023/09/09 00:45:02;;;;;;;0.10;0.10;;;;;;;19.98;100.00;100063.94;5068821;28;20029;-66
2023/09/09 00:47:28;;;;;;;0.10;0.10;;;;;;;19.92;100.00;100061.66;5044422;28;20028;-66
2023/09/09 00:49:54;;;;;;;0.13;0.13;;;;;;;19.89;100.00;100059.16;5049747;28;20017;-66
2023/09/09 00:52:19;;;;;;;0.10;0.10;;;;;;;19.83;100.00;100058.75;5051019;28;20507;-66
2023/09/09 00:54:45;;;;;;;0.10;0.10;;;;;;;19.82;100.00;100057.88;5056352;28;20028;-67
2023/09/09 00:57:12;;;;;;;0.10;0.10;;;;;;;19.84;100.00;100068.56;5067801;28;20371;-67
2023/09/09 00:59:38;;;;;;;0.20;0.20;;;;;;;19.79;100.00;100058.09;5064845;28;20488;-67
2023/09/09 01:02:03;;;;;;;0.10;0.10;;;;;;;19.76;100.00;100062.81;5086013;28;20034;-66
2023/09/09 01:04:29;;;;;;;0.10;0.10;;;;;;;19.79;100.00;100068.88;5089350;28;20043;-66
2023/09/09 01:07:00;;;;;;;0.10;0.10;;;;;;;19.79;100.00;100066.19;5052329;28;20032;-66
2023/09/09 01:09:25;;;;;;;0.20;0.20;;;;;;;19.77;100.00;100061.88;5068048;28;20116;-66
2023/09/09 01:11:51;;;;;;;0.10;0.10;;;;;;;19.71;100.00;100059.56;5064903;28;20039;-67
2023/09/09 01:14:16;;;;;;;0.20;0.20;;;;;;;19.71;100.00;100065.84;5048463;28;20037;-66
2023/09/09 01:16:43;;;;;;;0.10;0.10;;;;;;;19.70;100.00;100063.25;5056479;28;20020;-67
2023/09/09 01:19:13;;;;;;;0.20;0.20;;;;;;;19.70;100.00;100064.13;5065874;28;20078;-67
2023/09/09 01:21:40;;;;;;;0.10;0.10;;;;;;;19.65;100.00;100060.88;5071929;28;20077;-67
2023/09/09 01:24:05;;;;;;;0.20;0.20;;;;;;;19.59;100.00;100061.28;5053988;28;20437;-67
2023/09/09 01:26:31;;;;;;;0.20;0.20;;;;;;;19.60;100.00;100065.72;5071117;28;20029;-67
2023/09/09 01:28:56;;;;;;;0.20;0.20;;;;;;;19.58;100.00;100078.47;5054398;28;20028;-66
2023/09/09 01:31:22;;;;;;;0.10;0.10;;;;;;;19.54;100.00;100056.22;5054208;28;20502;-66
2023/09/09 01:33:48;;;;;;;0.20;0.20;;;;;;;19.56;100.00;100064.19;5054060;28;20400;-66
2023/09/09 01:36:14;;;;;;;0.10;0.10;;;;;;;19.54;100.00;100074.22;5056428;28;20111;-66
2023/09/09 01:38:39;;;;;;;0.20;0.20;;;;;;;19.46;100.00;100060.41;5068764;28;20033;-66
2023/09/09 01:41:05;;;;;;;0.10;0.10;;;;;;;19.47;100.00;100068.38;5038004;28;20032;-66
2023/09/09 01:43:30;;;;;;;0.17;0.17;;;;;;;19.45;100.00;100069.47;5071339;28;20029;-66
2023/09/09 01:45:55;;;;;;;0.10;0.10;;;;;;;19.42;100.00;100070.53;5066341;28;20059;-66
2023/09/09 01:48:21;;;;;;;0.20;0.20;;;;;;;19.43;100.00;100068.72;5068580;28;20074;-66
2023/09/09 01:50:46;;;;;;;0.15;0.15;;;;;;;19.37;100.00;100064.59;5071290;28;20551;-66
2023/09/09 01:53:12;;;;;;;0.20;0.20;;;;;;;19.41;100.00;100068.81;5070155;28;20036;-66
2023/09/09 01:55:37;;;;;;;0.10;0.10;;;;;;;19.37;100.00;100066.44;5068355;28;20035;-66
2023/09/09 01:58:03;;;;;;;0.13;0.13;;;;;;;19.40;100.00;100072.50;5069538;28;20052;-65
2023/09/09 02:00:29;;;;;;;0.20;0.20;;;;;;;19.39;100.00;100069.88;5044166;28;20068;-65
2023/09/09 02:02:55;;;;;;;0.13;0.13;;;;;;;19.37;100.00;100074.53;5051083;28;20029;-66
2023/09/09 02:05:20;;;;;;;0.20;0.20;;;;;;;19.28;100.00;100069.69;5051220;28;20044;-66
2023/09/09 02:07:46;;;;;;;0.20;0.20;;;;;;;19.31;100.00;100080.31;5052847;28;20033;-66
2023/09/09 02:10:11;;;;;;;0.13;0.13;;;;;;;19.28;100.00;100075.97;5060889;28;20127;-66
2023/09/09 02:12:37;;;;;;;0.20;0.20;;;;;;;19.25;100.00;100084.28;5050019;28;20048;-66
2023/09/09 02:15:02;;;;;;;0.20;0.20;;;;;;;19.25;100.00;100078.00;5052043;28;20029;-66
2023/09/09 02:17:28;;;;;;;0.20;0.20;;;;;;;19.21;100.00;100079.16;5070940;28;20114;-66
2023/09/09 02:19:57;;;;;;;0.20;0.20;;;;;;;19.20;100.00;100077.44;5070465;28;20032;-66
2023/09/09 02:22:23;;;;;;;0.10;0.10;;;;;;;19.17;100.00;100075.84;5066952;28;20488;-66
2023/09/09 02:24:56;;;;;;;0.20;0.20;;;;;;;19.16;100.00;100070.53;5070551;28;20425;-66
2023/09/09 02:27:22;;;;;;;0.10;0.10;;;;;;;19.15;100.00;100076.88;5070347;28;20396;-66
2023/09/09 02:29:48;;;;;;;0.20;0.20;;;;;;;19.11;100.00;100080.78;5068152;28;20028;-66
2023/09/09 02:32:13;;;;;;;0.20;0.20;;;;;;;19.09;100.00;100077.31;5069423;28;20077;-65
2023/09/09 02:34:38;;;;;;;0.20;0.20;;;;;;;19.08;100.00;100076.44;5070189;28;20082;-66
2023/09/09 02:37:18;;;;;;;0.20;0.20;;;;;;;19.04;100.00;100076.75;5070074;28;20387;-66
2023/09/09 02:39:45;;;;;;;0.20;0.20;;;;;;;19.00;100.00;100077.91;5061451;28;20727;-66
2023/09/09 02:42:14;;;;;;;0.15;0.15;;;;;;;18.99;100.00;100070.78;5050139;28;20029;-66
2023/09/09 02:44:40;;;;;;;0.10;0.10;;;;;;;18.94;100.00;100072.91;5050066;28;20029;-66
2023/09/09 02:47:06;;;;;;;0.20;0.20;;;;;;;18.94;100.00;100078.31;5054568;28;20388;-67
2023/09/09 02:49:32;;;;;;;0.20;0.20;;;;;;;18.89;100.00;100075.94;5049002;28;20017;-66
2023/09/09 02:51:57;;;;;;;0.20;0.20;;;;;;;18.87;100.00;100071.59;5049860;28;20794;-66
2023/09/09 02:54:23;;;;;;;0.20;0.20;;;;;;;18.87;100.00;100071.59;5037913;28;20036;-66
2023/09/09 02:56:48;;;;;;;0.20;0.20;;;;;;;18.81;100.00;100072.88;5070234;28;20055;-66
2023/09/09 02:59:13;;;;;;;0.20;0.20;;;;;;;18.77;100.00;100073.16;5069586;28;20501;-66
2023/09/09 03:01:39;;;;;;;0.20;0.20;;;;;;;18.78;100.00;100069.50;5068804;28;20027;-66
2023/09/09 03:04:04;;;;;;;0.20;0.20;;;;;;;18.76;100.00;100068.75;5060705;28;20099;-66
2023/09/09 03:06:30;;;;;;;0.20;0.20;;;;;;;18.75;100.00;100077.75;5074650;28;20043;-65
2023/09/09 03:08:55;;;;;;;0.20;0.20;;;;;;;18.72;100.00;100073.44;5078703;28;20031;-65
2023/09/09 03:11:20;;;;;;;0.20;0.20;;;;;;;18.73;100.00;100080.56;5070516;28;20189;-65
2023/09/09 03:13:46;;;;;;;0.20;0.20;;;;;;;18.70;100.00;100077.22;5071213;28;20024;-65
2023/09/09 03:16:11;;;;;;;0.20;0.20;;;;;;;18.68;100.00;100071.06;5089552;28;20028;-65
2023/09/09 03:18:37;;;;;;;0.20;0.20;;;;;;;18.66;100.00;100070.28;5075951;28;20024;-65
2023/09/09 03:21:02;;;;;;;0.20;0.20;;;;;;;18.68;100.00;100071.06;5066655;28;20107;-65
2023/09/09 03:23:28;;;;;;;0.20;0.20;;;;;;;18.72;100.00;100077.97;5064013;28;20455;-65
2023/09/09 03:25:53;;;;;;;0.20;0.20;;;;;;;18.72;100.00;100072.56;5049380;28;20029;-65
2023/09/09 03:28:18;;;;;;;0.20;0.20;;;;;;;18.75;100.00;100080.47;5060434;28;20097;-65
2023/09/09 03:30:58;;;;;;;0.20;0.20;;;;;;;18.76;100.00;100079.50;5049007;28;20032;-65
2023/09/09 03:33:27;;;;;;;0.20;0.20;;;;;;;18.72;100.00;100086.06;5040328;28;20706;-65
2023/09/09 03:35:53;;;;;;;0.20;0.20;;;;;;;18.68;100.00;100076.47;5050483;28;20024;-66
2023/09/09 03:38:18;;;;;;;0.20;0.20;;;;;;;18.69;100.00;100072.78;5069085;28;20040;-66
2023/09/09 03:40:44;;;;;;;0.20;0.20;;;;;;;18.66;100.00;100078.38;5067363;28;20107;-65
2023/09/09 03:43:09;;;;;;;0.20;0.20;;;;;;;18.66;100.00;100084.63;5046558;28;20140;-65
2023/09/09 03:45:35;;;;;;;0.20;0.20;;;;;;;18.59;100.00;100082.41;5087571;28;20023;-66
2023/09/09 03:48:03;;;;;;;0.20;0.20;;;;;;;18.61;100.00;100089.47;5089012;28;20030;-66
2023/09/09 03:50:28;;;;;;;0.20;0.20;;;;;;;18.64;100.00;100085.69;5066479;28;20021;-66
2023/09/09 03:52:53;;;;;;;0.15;0.15;;;;;;;18.61;100.00;100077.81;5033051;28;20029;-66
2023/09/09 03:55:19;;;;;;;0.20;0.20;;;;;;;18.62;100.00;100082.22;5058535;28;20020;-66
2023/09/09 03:57:44;;;;;;;0.20;0.20;;;;;;;18.60;100.00;100079.63;5065897;28;20111;-66
2023/09/09 04:00:10;;;;;;;0.20;0.20;;;;;;;18.63;100.00;100083.97;5068592;28;20533;-66
2023/09/09 04:02:36;;;;;;;0.20;0.20;;;;;;;18.59;100.00;100088.69;5050890;28;20025;-66
2023/09/09 04:05:01;;;;;;;0.20;0.20;;;;;;;18.59;100.00;100087.81;5068910;28;20039;-66
2023/09/09 04:07:27;;;;;;;0.20;0.20;;;;;;;18.59;100.00;100082.41;5053770;28;20118;-66
2023/09/09 04:09:55;;;;;;;0.20;0.20;;;;;;;18.60;100.00;100092.25;5055314;28;20052;-66
2023/09/09 04:12:20;;;;;;;0.20;0.20;;;;;;;18.62;100.00;100095.69;5068923;28;20024;-66
2023/09/09 04:14:46;;;;;;;0.20;0.20;;;;;;;18.62;100.00;100083.09;5067649;28;20036;-66
2023/09/09 04:17:11;;;;;;;0.20;0.20;;;;;;;18.65;100.00;100092.81;5050930;28;20017;-66
2023/09/09 04:19:37;;;;;;;0.20;0.20;;;;;;;18.70;100.00;100093.41;5048603;28;20029;-66
2023/09/09 04:22:02;;;;;;;0.20;0.20;;;;;;;18.73;100.00;100095.88;5051197;28;20168;-65
2023/09/09 04:24:28;;;;;;;0.20;0.20;;;;;;;18.75;100.00;100091.25;5048427;28;20173;-65
2023/09/09 04:26:53;;;;;;;0.20;0.20;;;;;;;18.75;100.00;100089.41;5048201;28;20032;-66
2023/09/09 04:29:19;;;;;;;0.20;0.20;;;;;;;18.77;100.00;100097.41;5030250;28;20059;-66
2023/09/09 04:31:46;;;;;;;0.20;0.20;;;;;;;18.78;100.00;100101.84;5051096;28;20119;-65
2023/09/09 04:34:12;;;;;;;0.20;0.20;;;;;;;18.79;100.00;100107.13;5048580;28;20025;-66
2023/09/09 04:36:38;;;;;;;0.20;0.20;;;;;;;18.82;100.00;100104.25;5058741;28;20032;-65
2023/09/09 04:39:03;;;;;;;0.20;0.20;;;;;;;18.93;100.00;100106.25;5064810;28;20033;-66
2023/09/09 04:41:29;;;;;;;0.20;0.20;;;;;;;18.96;100.00;100097.97;5066850;28;20024;-66
2023/09/09 04:43:54;;;;;;;0.20;0.20;;;;;;;18.88;100.00;100100.28;5055106;28;20033;-65
2023/09/09 04:46:19;;;;;;;0.20;0.20;;;;;;;18.88;100.00;100102.97;5047788;28;20109;-65
2023/09/09 04:48:46;;;;;;;0.20;0.20;;;;;;;18.80;100.00;100105.28;5055079;28;20021;-66
2023/09/09 04:51:11;;;;;;;0.20;0.20;;;;;;;18.79;100.00;100109.84;5068252;28;20511;-65
2023/09/09 04:53:36;;;;;;;0.10;0.10;;;;;;;18.81;100.00;100115.13;5068670;28;20024;-65
2023/09/09 04:56:03;;;;;;;0.20;0.20;;;;;;;18.83;100.00;100118.59;5067633;28;20097;-66
2023/09/09 04:58:29;;;;;;;0.20;0.20;;;;;;;18.89;100.00;100115.50;5074627;28;20027;-66
2023/09/09 05:00:54;;;;;;;0.20;0.20;;;;;;;18.91;100.00;100113.56;5058601;28;20037;-66
2023/09/09 05:03:20;;;;;;;0.17;0.17;;;;;;;18.91;100.00;100117.09;5049324;28;20560;-65
2023/09/09 05:05:45;;;;;;;0.20;0.20;;;;;;;18.91;100.00;100108.19;5059917;28;20036;-65
2023/09/09 05:08:10;;;;;;;0.20;0.20;;;;;;;18.88;100.00;100117.31;5051365;28;20498;-65
2023/09/09 05:10:37;;;;;;;0.20;0.20;;;;;;;18.92;100.00;100118.84;5069951;28;20054;-66
2023/09/09 05:13:04;;;;;;;0.20;0.20;;;;;;;18.92;100.00;100123.38;5071687;28;20033;-66
2023/09/09 05:15:29;;;;;;;0.20;0.20;;;;;;;18.93;100.00;100119.72;5068480;28;20086;-66
2023/09/09 05:17:55;;;;;;;0.20;0.20;;;;;;;18.95;100.00;100123.16;5071981;28;20032;-65
2023/09/09 05:20:21;;;;;;;0.30;0.30;;;;;;;18.96;100.00;100128.44;5069212;28;20077;-66
2023/09/09 05:22:46;;;;;;;0.20;0.20;;;;;;;18.94;100.00;100118.75;5053294;28;20063;-66
2023/09/09 05:25:12;;;;;;;0.10;0.10;;;;;;;18.95;100.00;100123.16;5051183;28;20036;-66
2023/09/09 05:27:37;;;;;;;0.20;0.20;;;;;;;18.99;100.00;100130.97;5054089;28;20024;-66
2023/09/09 05:30:04;;;;;;;0.20;0.20;;;;;;;18.99;100.00;100130.09;5051920;28;20036;-66
2023/09/09 05:32:29;;;;;;;0.20;0.20;;;;;;;19.00;100.00;100131.81;5050099;28;20102;-65
2023/09/09 05:34:55;;;;;;;0.20;0.20;;;;;;;19.03;100.00;100142.41;5071187;28;20028;-66
2023/09/09 05:37:20;;;;;;;0.20;0.20;;;;;;;19.08;100.00;100141.16;5067403;28;20048;-65
2023/09/09 05:39:46;;;;;;;0.20;0.20;;;;;;;19.08;100.00;100133.06;5068784;28;20119;-66
2023/09/09 05:42:11;;;;;;;0.20;0.20;;;;;;;19.20;100.00;100134.97;5064046;28;20032;-66
2023/09/09 05:44:36;;;;;;;0.20;0.20;;;;;;;19.27;100.00;100135.41;5033188;28;20037;-66
2023/09/09 05:47:02;;;;;;;0.20;0.20;;;;;;;19.34;100.00;100136.78;5050973;28;20040;-66
2023/09/09 05:49:28;;;;;;;0.20;0.20;;;;;;;19.45;100.00;100151.28;5055886;28;20029;-65
2023/09/09 05:51:53;;;;;;;0.20;0.20;;;;;;;19.50;100.00;100145.56;5051346;28;20116;-65
2023/09/09 05:54:18;;;;;;;0.20;0.20;;;;;;;19.60;100.00;100144.84;5066566;28;20043;-65
2023/09/09 05:56:44;;;;;;;0.20;0.20;;;;;;;19.67;100.00;100145.28;5070662;28;20036;-65
2023/09/09 05:59:10;;;;;;;0.10;0.10;;;;;;;19.84;100.00;100152.25;5070122;28;20060;-66
2023/09/09 06:01:35;;;;;;;0.20;0.20;;;;;;;19.87;100.00;100146.66;5065615;28;20161;-65
2023/09/09 06:04:01;;;;;;;0.20;0.20;;;;;;;19.92;100.00;100148.06;5051360;28;20040;-65
2023/09/09 06:06:26;;;;;;;0.20;0.20;;;;;;;20.06;100.00;100150.69;5033086;28;20039;-66
2023/09/09 06:08:52;;;;;;;0.20;0.20;;;;;;;20.17;100.00;100150.81;5050328;28;20028;-65
2023/09/09 06:11:17;;;;;;;0.20;0.20;;;;;;;20.34;100.00;100150.53;5065967;28;20049;-65
2023/09/09 06:13:43;;;;;;;0.20;0.20;;;;;;;20.46;100.00;100152.34;5052593;28;20102;-66
2023/09/09 06:16:08;;;;;;;0.20;0.20;;;;;;;20.55;100.00;100151.69;5061037;28;20025;-65
2023/09/09 06:18:33;;;;;;;0.10;0.10;;;;;;;20.62;100.00;100146.72;5050188;28;20040;-66
2023/09/09 06:20:59;;;;;;;0.20;0.20;;;;;;;20.82;100.00;100165.94;5053387;28;20116;-64
2023/09/09 06:23:24;;;;;;;0.20;0.20;;;;;;;21.01;100.00;100162.78;5050226;28;20067;-65
2023/09/09 06:25:50;;;;;;;0.20;0.20;;;;;;;21.28;100.00;100168.03;5052682;28;20541;-65
2023/09/09 06:28:16;;;;;;;0.20;0.20;;;;;;;21.48;100.00;100164.69;5050377;28;20064;-65
2023/09/09 06:30:44;;;;;;;0.20;0.20;;;;;;;21.72;100.00;100162.84;5056706;28;20554;-65
2023/09/09 06:33:10;;;;;;;0.20;0.20;;;;;;;22.49;100.00;100165.81;5063133;28;20048;-65
2023/09/09 06:35:35;;;;;;;0.20;0.20;;;;;;;22.70;100.00;100164.13;5069266;28;20505;-65
2023/09/09 06:38:00;;;;;;;0.10;0.10;;;;;;;22.72;99.29;100170.31;5065112;28;20040;-65
2023/09/09 06:40:27;;;;;;;0.20;0.20;;;;;;;22.75;98.99;100175.47;5058549;28;20032;-64
2023/09/09 06:42:52;;;;;;;0.13;0.13;;;;;;;23.11;100.00;100174.38;5050482;28;20036;-65
2023/09/09 06:45:18;;;;;;;0.10;0.10;;;;;;;24.69;96.94;100185.28;5053619;28;20033;-65
2023/09/09 06:47:46;;;;;;;0.10;0.10;;;;;;;26.56;84.23;100185.06;5054022;28;20028;-64
2023/09/09 06:50:12;;;;;;;0.10;0.10;;;;;;;28.19;72.48;100187.84;5048664;28;20021;-64
2023/09/09 06:52:38;;;;;;;0.10;0.10;;;;;;;28.95;64.89;100186.22;5051790;28;20523;-65
2023/09/09 06:55:08;;;;;;;0.20;0.20;;;;;;;29.22;63.44;100194.28;5056151;28;20551;-64
2023/09/09 06:57:33;;;;;;;0.10;0.10;;;;;;;28.97;64.30;100193.28;5067308;28;20020;-64
2023/09/09 06:59:59;;;;;;;0.10;0.10;;;;;;;28.08;67.28;100194.44;5052753;28;20029;-64
2023/09/09 07:02:24;;;;;;;0.10;0.10;;;;;;;27.00;70.81;100199.94;5049577;28;20040;-64
2023/09/09 07:04:49;;;;;;;0.10;0.10;;;;;;;26.47;74.28;100207.81;5049482;28;20079;-64
2023/09/09 07:07:15;;;;;;;0.10;0.10;;;;;;;26.39;76.83;100201.34;5054398;28;20454;-64
2023/09/09 07:09:40;;;;;;;0.10;0.10;;;;;;;26.44;77.42;100201.78;5067941;28;20035;-65
2023/09/09 07:12:08;;;;;;;0.10;0.10;;;;;;;26.37;75.72;100206.09;5066676;28;20094;-64
2023/09/09 07:14:34;;;;;;;0.10;0.10;;;;;;;26.49;76.05;100204.94;5058264;28;20109;-65
2023/09/09 07:16:59;;;;;;;0.10;0.10;;;;;;;27.09;75.64;100204.47;5048977;28;20033;-65
2023/09/09 07:19:24;;;;;;;0.10;0.10;;;;;;;27.91;71.84;100198.03;5049683;28;20025;-65
2023/09/09 07:21:50;;;;;;;0.10;0.10;;;;;;;28.50;68.69;100210.22;5053818;28;20043;-64
2023/09/09 07:24:15;;;;;;;0.10;0.10;;;;;;;28.67;66.36;100212.03;5049124;28;20163;-65
2023/09/09 07:26:40;;;;;;;0.10;0.10;;;;;;;28.52;66.51;100209.03;5032858;28;20036;-65
2023/09/09 07:29:06;;;;;;;0.00;0.00;;;;;;;28.74;66.41;100207.66;5062989;28;20020;-64
2023/09/09 07:31:31;;;;;;;0.10;0.10;;;;;;;29.17;64.99;100207.63;5056710;28;20345;-65
2023/09/09 07:33:57;;;;;;;0.10;0.10;;;;;;;29.67;62.74;100198.44;5049121;28;20047;-65
2023/09/09 07:36:22;;;;;;;0.10;0.10;;;;;;;29.99;60.39;100205.88;5055367;28;20043;-65
2023/09/09 07:38:47;;;;;;;0.00;0.00;;;;;;;30.09;58.88;100209.31;5068876;28;20024;-65
2023/09/09 07:41:13;;;;;;;0.00;0.00;;;;;;;30.33;58.34;100209.38;5067373;28;20383;-65
2023/09/09 07:43:38;;;;;;;0.10;0.10;;;;;;;30.35;58.13;100210.06;5062631;28;20481;-65
2023/09/09 07:46:04;;;;;;;0.00;0.00;;;;;;;30.36;57.79;100206.28;5068936;28;20107;-65
2023/09/09 07:48:30;;;;;;;0.10;0.10;;;;;;;30.51;58.39;100203.72;5065503;28;20028;-65
2023/09/09 07:50:59;;;;;;;0.00;0.00;;;;;;;29.92;60.59;100195.75;5067121;28;20029;-65
2023/09/09 07:53:24;;;;;;;0.00;0.00;;;;;;;30.16;60.80;100193.91;5059761;28;20082;-65
2023/09/09 07:55:51;;;;;;;0.00;0.00;;;;;;;30.42;59.03;100177.28;5063041;28;20036;-66
2023/09/09 07:58:17;;;;;;;0.00;0.00;;;;;;;30.66;58.27;100194.59;5071324;28;20024;-66
2023/09/09 08:00:44;;;;;;;0.00;0.00;;;;;;;30.64;57.44;100196.66;5053427;28;20031;-65
2023/09/09 08:03:10;;;;;;;0.00;0.00;;;;;;;30.99;57.16;100214.66;5048306;28;20033;-65
2023/09/09 08:05:37;;;;;;;0.00;0.00;;;;;;;31.00;58.07;100210.03;5047265;28;20059;-65
2023/09/09 08:08:04;;;;;;;0.00;0.00;;;;;;;30.91;57.16;100213.84;5048043;28;20025;-65
2023/09/09 08:10:30;;;;;;;0.00;0.00;;;;;;;31.09;57.01;100217.22;5057668;28;20076;-65
2023/09/09 08:12:55;;;;;;;0.00;0.00;;;;;;;31.27;56.34;100212.38;5060225;28;20035;-65
2023/09/09 08:15:21;;;;;;;0.03;0.03;;;;;;;31.33;56.33;100220.78;5048468;28;20538;-65
2023/09/09 08:17:47;;;;;;;0.00;0.00;;;;;;;31.01;55.72;100212.59;5048566;28;20061;-65
2023/09/09 08:20:12;;;;;;;0.00;0.00;;;;;;;31.51;56.25;100209.53;5048125;28;20472;-65
2023/09/09 08:22:37;;;;;;;0.00;0.00;;;;;;;31.86;53.77;100220.06;5059285;28;20028;-65
2023/09/09 08:25:04;;;;;;;0.00;0.00;;;;;;;31.88;55.75;100216.06;5061964;28;20029;-65
2023/09/09 08:27:30;;;;;;;0.00;0.00;;;;;;;31.93;54.05;100216.38;5048633;28;20029;-65
2023/09/09 08:29:56;;;;;;;0.00;0.00;;;;;;;32.11;53.72;100218.84;5051157;28;20079;-65
2023/09/09 08:32:21;;;;;;;0.00;0.00;;;;;;;32.36;52.66;100217.63;5054867;28;20039;-65
2023/09/09 08:34:50;;;;;;;0.00;0.00;;;;;;;32.48;51.46;100216.19;5052725;28;20048;-66
2023/09/09 08:37:15;;;;;;;0.00;0.00;;;;;;;32.36;51.37;100222.28;5057794;28;20491;-66
2023/09/09 08:39:40;;;;;;;0.00;0.00;;;;;;;32.46;51.76;100214.66;5064672;28;20029;-65
2023/09/09 08:42:35;;;;;;;0.00;0.00;;;;;;;32.60;51.47;100209.22;5054218;28;20756;-65
2023/09/09 08:45:12;;;;;;;0.00;0.00;;;;;;;32.68;51.32;100224.81;4981181;28;20054;-65
2023/09/09 08:47:41;;;;;;;0.00;0.00;;;;;;;32.72;51.48;100218.72;5052438;28;20027;-65
2023/09/09 08:50:08;;;;;;;0.00;0.00;;;;;;;32.87;51.17;100224.25;5054970;28;20113;-65
2023/09/09 08:52:35;;;;;;;0.00;0.00;;;;;;;33.21;49.05;100211.69;5051410;28;20029;-65
2023/09/09 08:55:01;;;;;;;0.00;0.00;;;;;;;33.55;49.49;100219.41;5055143;28;20031;-65
2023/09/09 08:57:30;;;;;;;0.00;0.00;;;;;;;33.90;50.02;100209.44;5062083;28;20383;-65
2023/09/09 08:59:57;;;;;;;0.00;0.00;;;;;;;34.17;49.14;100217.00;5054448;28;20498;-65
2023/09/09 09:02:22;;;;;;;0.00;0.00;;;;;;;34.35;47.75;100211.91;5052287;28;20475;-65
2023/09/09 09:04:52;;;;;;;0.00;0.00;;;;;;;34.30;47.96;100211.63;5054831;28;20115;-65
2023/09/09 09:07:17;;;;;;;0.00;0.00;;;;;;;34.22;46.97;100211.75;5068419;28;20379;-65
2023/09/09 09:09:43;;;;;;;0.00;0.00;;;;;;;34.44;47.82;100213.50;5069597;28;20035;-66
2023/09/09 09:12:11;;;;;;;0.00;0.00;;;;;;;34.51;47.71;100219.94;5052997;28;20060;-65
2023/09/09 09:14:44;;;;;;;0.00;0.00;;;;;;;34.38;46.97;100214.25;5050640;28;20032;-65
2023/09/09 09:17:10;;;;;;;0.00;0.00;;;;;;;34.62;46.35;100205.59;5065243;28;20399;-66
2023/09/09 09:19:36;;;;;;;0.00;0.00;;;;;;;34.84;46.17;100212.78;5069860;28;20021;-65
2023/09/09 09:22:02;;;;;;;0.00;0.00;;;;;;;35.05;46.40;100204.47;5075408;28;20030;-65
2023/09/09 09:24:28;;;;;;;0.00;0.00;;;;;;;34.87;46.99;100204.09;5039860;28;20032;-65
2023/09/09 09:26:55;;;;;;;0.00;0.00;;;;;;;35.19;46.28;100197.94;5060035;28;20032;-65
2023/09/09 09:29:21;;;;;;;0.00;0.00;;;;;;;35.45;45.39;100202.81;5050089;28;20113;-65
2023/09/09 09:31:51;;;;;;;0.00;0.00;;;;;;;35.73;44.87;100200.84;5071297;28;20039;-66
2023/09/09 09:34:18;;;;;;;0.00;0.00;;;;;;;35.72;44.16;100211.03;5070516;28;20028;-66
2023/09/09 09:36:44;;;;;;;0.00;0.00;;;;;;;35.71;44.32;100198.28;5068615;28;20362;-66
2023/09/09 09:39:10;;;;;;;0.00;0.00;;;;;;;35.42;44.60;100193.00;5051921;28;20039;-65
2023/09/09 09:41:38;;;;;;;0.00;0.00;;;;;;;35.52;43.86;100196.25;5070789;28;20494;-66
2023/09/09 09:44:16;;;;;;;0.00;0.00;;;;;;;35.88;44.15;100192.38;5063278;28;20108;-65
2023/09/09 09:46:41;;;;;;;0.00;0.00;;;;;;;36.27;43.67;100198.03;5054440;28;20051;-65
2023/09/09 09:49:08;;;;;;;0.00;0.00;;;;;;;36.31;42.95;100196.53;5071032;28;20032;-65
2023/09/09 09:51:43;;;;;;;0.00;0.00;;;;;;;36.40;42.60;100196.16;5055943;28;20029;-65
2023/09/09 09:54:09;;;;;;;0.00;0.00;;;;;;;36.60;43.10;100187.84;5059612;28;20036;-65
2023/09/09 09:56:38;;;;;;;0.00;0.00;;;;;;;36.47;42.07;100193.41;5058372;28;20036;-65
2023/09/09 09:59:05;;;;;;;0.00;0.00;;;;;;;35.64;43.78;100191.84;5051205;28;20031;-65
2023/09/09 10:01:33;;;;;;;0.00;0.00;;;;;;;35.65;44.19;100193.53;5051306;28;20496;-66
2023/09/09 10:04:06;;;;;;;0.00;0.00;;;;;;;35.92;44.34;100193.66;5053884;28;20089;-66
2023/09/09 10:06:34;;;;;;;0.00;0.00;;;;;;;36.30;44.26;100192.06;5049944;28;20029;-65
2023/09/09 10:09:11;;;;;;;0.00;0.00;;;;;;;36.65;44.10;100185.28;5050250;28;20042;-66
2023/09/09 10:11:43;;;;;;;0.00;0.00;;;;;;;36.44;42.75;100186.34;5063315;28;20787;-65
2023/09/09 10:14:15;;;;;;;0.00;0.00;;;;;;;35.77;43.77;100191.03;5057639;28;20040;-65
2023/09/09 10:16:42;;;;;;;0.00;0.00;;;;;;;35.81;44.70;100181.25;5051487;28;20041;-66
2023/09/09 10:19:13;;;;;;;0.00;0.00;;;;;;;36.23;43.87;100186.50;5058892;28;20036;-63
2023/09/09 10:21:40;;;;;;;0.00;0.00;;;;;;;36.43;42.35;100186.56;5050992;28;20499;-62
2023/09/09 10:24:07;;;;;;;0.00;0.00;;;;;;;36.54;41.96;100185.94;5051853;28;20036;-62
2023/09/09 10:26:36;;;;;;;0.00;0.00;;;;;;;36.56;42.49;100175.47;5063304;28;20028;-62
2023/09/09 10:29:03;;;;;;;0.00;0.00;;;;;;;36.79;43.54;100184.25;5051384;28;20024;-62
2023/09/09 10:31:30;;;;;;;0.00;0.00;;;;;;;36.89;42.30;100181.88;5060603;28;20088;-61
2023/09/09 10:33:56;;;;;;;0.00;0.00;;;;;;;36.95;42.26;100186.59;5061453;28;20028;-61
2023/09/09 10:36:24;;;;;;;0.00;0.00;;;;;;;36.95;41.81;100183.81;5068407;28;20438;-61
2023/09/09 10:38:52;;;;;;;0.00;0.00;;;;;;;37.16;41.54;100191.03;5051770;28;20039;-62
2023/09/09 10:41:17;;;;;;;0.00;0.00;;;;;;;36.98;40.50;100188.94;5066584;28;20060;-61
2023/09/09 10:43:43;;;;;;;0.00;0.00;;;;;;;36.87;41.30;100186.81;5049990;28;20499;-61
2023/09/09 10:46:08;;;;;;;0.00;0.00;;;;;;;36.72;42.22;100186.97;5049664;28;20025;-61
2023/09/09 10:48:34;;;;;;;0.00;0.00;;;;;;;36.76;41.67;100181.88;5054607;28;20088;-61
2023/09/09 10:51:05;;;;;;;0.00;0.00;;;;;;;36.93;41.40;100177.63;5051710;28;20043;-61
2023/09/09 10:53:31;;;;;;;0.00;0.00;;;;;;;36.93;40.89;100174.84;5049814;28;20028;-61
2023/09/09 10:55:59;;;;;;;0.00;0.00;;;;;;;37.12;41.12;100167.56;5061843;28;20483;-61
2023/09/09 10:58:33;;;;;;;0.00;0.00;;;;;;;37.40;39.43;100179.25;5059037;28;20040;-61
2023/09/09 11:00:59;;;;;;;0.00;0.00;;;;;;;37.29;39.57;100166.03;5068804;28;20081;-61
2023/09/09 11:03:35;;;;;;;0.00;0.00;;;;;;;37.64;38.49;100168.28;5065733;28;20108;-61
2023/09/09 11:06:06;;;;;;;0.00;0.00;;;;;;;37.75;38.79;100170.38;5059421;28;20033;-60
2023/09/09 11:08:46;;;;;;;0.00;0.00;;;;;;;37.30;39.30;100162.22;5051149;28;20111;-61
2023/09/09 11:11:24;;;;;;;0.00;0.00;;;;;;;37.91;40.38;100160.69;5066947;28;20125;-62
2023/09/09 11:14:03;;;;;;;0.00;0.00;;;;;;;38.36;39.16;100164.25;5068305;28;20062;-61
2023/09/09 11:16:31;;;;;;;0.00;0.00;;;;;;;38.60;39.50;100166.25;5074158;28;20388;-61